Time;durP1;ratioP1;P1;durP2;ratioP2;P2;SDS_P1;SDS_P2;PMS_P1;PMS_P2;Temp;Humidity;BMP_temperature;BMP_pressure;BME280_temperature;BME280_humidity;BME280_pressure;Samples;Min_cycle;Max_cycle;Signal;HPM_P1;HPM_P2
2022/01/01 00:02:08;;;;;;;55.53;45.67;;;;;;;;;;5053421;28;20045;-58
2022/01/01 00:04:35;;;;;;;55.88;47.05;;;;;;;;;;5052995;28;20057;-58
2022/01/01 00:07:01;;;;;;;56.22;46.58;;;;;;;;;;5052136;28;20045;-58
2022/01/01 00:09:27;;;;;;;57.15;48.13;;;;;;;;;;5052847;28;20111;-57
2022/01/01 00:11:54;;;;;;;60.03;48.63;;;;;;;;;;5053154;28;20083;-57
2022/01/01 00:14:21;;;;;;;60.40;49.33;;;;;;;;;;5052256;28;20060;-57
2022/01/01 00:16:47;;;;;;;61.88;49.30;;;;;;;;;;5052771;28;20044;-57
2022/01/01 00:19:14;;;;;;;60.35;50.05;;;;;;;;;;5051997;28;20056;-57
2022/01/01 00:21:41;;;;;;;61.47;48.33;;;;;;;;;;5052913;28;20049;-57
2022/01/01 00:24:07;;;;;;;61.03;48.85;;;;;;;;;;5053047;28;20072;-58
2022/01/01 00:26:33;;;;;;;63.13;48.70;;;;;;;;;;5051996;28;20049;-59
2022/01/01 00:29:00;;;;;;;57.63;48.40;;;;;;;;;;5052465;28;20103;-57
2022/01/01 00:31:28;;;;;;;54.58;45.78;;;;;;;;;;5052680;28;20049;-57
2022/01/01 00:33:55;;;;;;;60.40;46.33;;;;;;;;;;5051441;28;20048;-60
2022/01/01 00:36:21;;;;;;;56.60;46.88;;;;;;;;;;5052477;28;20561;-59
2022/01/01 00:38:47;;;;;;;52.25;44.15;;;;;;;;;;5052090;28;20075;-60
2022/01/01 00:41:13;;;;;;;61.10;46.42;;;;;;;;;;5051759;28;20103;-59
2022/01/01 00:43:40;;;;;;;57.85;43.83;;;;;;;;;;5052685;28;20048;-59
2022/01/01 00:46:06;;;;;;;54.67;43.55;;;;;;;;;;5051867;28;20052;-60
2022/01/01 00:48:33;;;;;;;56.33;42.17;;;;;;;;;;5051714;28;20048;-59
2022/01/01 00:51:00;;;;;;;55.65;44.20;;;;;;;;;;5051923;28;20458;-60
2022/01/01 00:53:26;;;;;;;55.10;43.33;;;;;;;;;;5052037;28;20049;-59
2022/01/01 00:55:52;;;;;;;56.10;42.92;;;;;;;;;;5051197;28;20041;-59
2022/01/01 00:58:18;;;;;;;55.10;44.15;;;;;;;;;;5052206;28;20102;-59
2022/01/01 01:00:44;;;;;;;53.90;43.00;;;;;;;;;;5051682;28;20106;-60
2022/01/01 01:03:11;;;;;;;56.05;43.90;;;;;;;;;;5051435;28;20053;-59
2022/01/01 01:05:39;;;;;;;58.83;44.60;;;;;;;;;;5051629;28;20049;-60
2022/01/01 01:08:05;;;;;;;55.58;43.80;;;;;;;;;;5051637;28;20055;-59
2022/01/01 01:10:32;;;;;;;56.20;43.05;;;;;;;;;;5051123;28;20057;-59
2022/01/01 01:12:58;;;;;;;57.30;43.20;;;;;;;;;;5051446;28;20462;-60
2022/01/01 01:15:24;;;;;;;57.78;44.42;;;;;;;;;;5050911;28;20419;-60
2022/01/01 01:17:51;;;;;;;53.53;44.72;;;;;;;;;;5051660;28;20392;-60
2022/01/01 01:20:18;;;;;;;57.75;45.20;;;;;;;;;;5051566;28;20049;-60
2022/01/01 01:22:46;;;;;;;60.78;45.80;;;;;;;;;;5050657;28;20099;-60
2022/01/01 01:25:12;;;;;;;57.80;45.97;;;;;;;;;;5051747;28;20049;-59
2022/01/01 01:27:39;;;;;;;57.40;46.38;;;;;;;;;;5051767;28;20388;-59
2022/01/01 01:30:06;;;;;;;59.10;46.00;;;;;;;;;;5050774;28;20549;-60
2022/01/01 01:32:32;;;;;;;60.72;47.50;;;;;;;;;;5051453;28;20044;-59
2022/01/01 01:34:58;;;;;;;58.88;46.75;;;;;;;;;;5050791;28;20041;-59
2022/01/01 01:37:25;;;;;;;59.97;46.08;;;;;;;;;;5050491;28;20210;-60
2022/01/01 01:39:52;;;;;;;59.45;45.53;;;;;;;;;;5051056;28;20433;-59
2022/01/01 01:42:19;;;;;;;58.17;46.22;;;;;;;;;;5051217;28;20045;-59
2022/01/01 01:44:47;;;;;;;56.60;45.58;;;;;;;;;;5050327;28;20052;-59
2022/01/01 01:47:16;;;;;;;59.47;45.47;;;;;;;;;;5051128;28;20135;-59
2022/01/01 01:49:42;;;;;;;58.63;44.60;;;;;;;;;;5051185;28;20044;-60
2022/01/01 01:52:09;;;;;;;55.83;43.85;;;;;;;;;;5050637;28;20041;-60
2022/01/01 01:54:35;;;;;;;51.88;42.47;;;;;;;;;;5051394;28;20091;-60
2022/01/01 01:57:03;;;;;;;57.55;43.60;;;;;;;;;;5050859;28;20053;-60
2022/01/01 01:59:30;;;;;;;54.05;41.70;;;;;;;;;;5050383;28;20041;-59
2022/01/01 02:01:56;;;;;;;55.00;41.88;;;;;;;;;;5050727;28;20106;-60
2022/01/01 02:04:22;;;;;;;53.15;41.10;;;;;;;;;;5050901;28;20045;-60
2022/01/01 02:06:49;;;;;;;51.58;40.97;;;;;;;;;;5050127;28;20049;-60
2022/01/01 02:09:15;;;;;;;53.15;39.65;;;;;;;;;;5051147;28;20041;-60
2022/01/01 02:11:41;;;;;;;49.63;39.28;;;;;;;;;;5050149;28;20037;-60
2022/01/01 02:14:19;;;;;;;51.25;38.40;;;;;;;;;;5050968;28;20443;-60
2022/01/01 02:19:30;;;;;;;49.05;37.08;;;;;;;;;;5050234;28;20056;-60
2022/01/01 02:22:03;;;;;;;47.88;36.63;;;;;;;;;;5050614;28;20052;-60
2022/01/01 02:24:30;;;;;;;48.53;37.13;;;;;;;;;;5050889;28;20690;-60
2022/01/01 02:26:56;;;;;;;46.83;34.63;;;;;;;;;;5049819;28;20045;-60
2022/01/01 02:29:22;;;;;;;47.03;34.58;;;;;;;;;;5050812;28;20041;-60
2022/01/01 02:31:50;;;;;;;45.83;33.60;;;;;;;;;;5050316;28;20053;-60
2022/01/01 02:34:16;;;;;;;44.75;31.88;;;;;;;;;;5050130;28;20045;-60
2022/01/01 02:36:43;;;;;;;42.40;31.92;;;;;;;;;;5050455;28;20506;-60
2022/01/01 02:39:12;;;;;;;41.45;32.17;;;;;;;;;;5050640;28;20091;-60
2022/01/01 02:41:38;;;;;;;43.90;31.58;;;;;;;;;;5050015;28;20518;-60
2022/01/01 02:44:05;;;;;;;39.33;30.50;;;;;;;;;;5050365;28;20107;-60
2022/01/01 02:46:32;;;;;;;43.97;30.63;;;;;;;;;;5051467;28;20041;-60
2022/01/01 02:48:58;;;;;;;44.33;29.73;;;;;;;;;;5053589;28;20045;-60
2022/01/01 02:51:24;;;;;;;38.75;28.25;;;;;;;;;;5054612;28;20053;-60
2022/01/01 02:53:50;;;;;;;43.03;28.90;;;;;;;;;;5053453;28;20455;-59
2022/01/01 02:56:18;;;;;;;36.67;27.45;;;;;;;;;;5054476;28;20048;-60
2022/01/01 02:58:44;;;;;;;37.45;27.13;;;;;;;;;;5053799;28;20053;-60
2022/01/01 03:01:10;;;;;;;37.17;25.75;;;;;;;;;;5053843;28;20492;-60
2022/01/01 03:03:36;;;;;;;40.08;26.88;;;;;;;;;;5054016;28;20573;-60
2022/01/01 03:06:03;;;;;;;37.50;26.48;;;;;;;;;;5054182;28;20049;-60
2022/01/01 03:08:29;;;;;;;35.00;25.75;;;;;;;;;;5053425;28;20045;-60
2022/01/01 03:10:56;;;;;;;36.33;25.35;;;;;;;;;;5053826;28;20183;-60
2022/01/01 03:13:23;;;;;;;34.00;24.15;;;;;;;;;;5054207;28;20044;-60
2022/01/01 03:15:49;;;;;;;36.47;25.15;;;;;;;;;;5053247;28;20053;-60
2022/01/01 03:18:16;;;;;;;34.28;22.88;;;;;;;;;;5054133;28;20100;-60
2022/01/01 03:20:42;;;;;;;39.05;23.92;;;;;;;;;;5053872;28;20096;-59
2022/01/01 03:23:08;;;;;;;32.78;22.38;;;;;;;;;;5053084;28;20553;-59
2022/01/01 03:25:34;;;;;;;32.33;22.60;;;;;;;;;;5053833;28;20053;-59
2022/01/01 03:28:01;;;;;;;33.38;22.50;;;;;;;;;;5053602;28;20049;-59
2022/01/01 03:30:28;;;;;;;35.42;23.42;;;;;;;;;;5053121;28;20041;-59
2022/01/01 03:32:54;;;;;;;31.83;22.55;;;;;;;;;;5053638;28;20044;-59
2022/01/01 03:35:21;;;;;;;29.40;21.10;;;;;;;;;;5053644;28;20049;-59
2022/01/01 03:37:47;;;;;;;28.35;20.58;;;;;;;;;;5052746;28;20041;-59
2022/01/01 03:40:13;;;;;;;32.25;21.40;;;;;;;;;;5053384;28;20053;-60
2022/01/01 03:42:40;;;;;;;28.67;20.77;;;;;;;;;;5053844;28;20095;-59
2022/01/01 03:45:07;;;;;;;33.63;21.67;;;;;;;;;;5052560;28;20044;-59
2022/01/01 03:47:35;;;;;;;29.83;21.23;;;;;;;;;;5053534;28;20499;-60
2022/01/01 03:50:01;;;;;;;29.45;20.42;;;;;;;;;;5053188;28;20045;-60
2022/01/01 03:52:28;;;;;;;29.83;20.13;;;;;;;;;;5052742;28;20079;-60
2022/01/01 03:54:54;;;;;;;28.13;20.70;;;;;;;;;;5053172;28;20462;-60
2022/01/01 03:57:21;;;;;;;31.00;22.45;;;;;;;;;;5052531;28;20044;-60
2022/01/01 03:59:47;;;;;;;26.83;19.67;;;;;;;;;;5052798;28;20041;-60
2022/01/01 04:02:14;;;;;;;30.63;20.42;;;;;;;;;;5053307;28;20107;-60
2022/01/01 04:04:42;;;;;;;26.55;19.67;;;;;;;;;;5052366;28;20053;-60
2022/01/01 04:07:09;;;;;;;27.92;19.75;;;;;;;;;;5053140;28;20515;-60
2022/01/01 04:09:35;;;;;;;25.65;19.40;;;;;;;;;;5053290;28;20056;-60
2022/01/01 04:12:01;;;;;;;24.83;19.23;;;;;;;;;;5052325;28;20057;-60
2022/01/01 04:14:28;;;;;;;27.98;20.05;;;;;;;;;;5053093;28;20044;-60
2022/01/01 04:16:54;;;;;;;26.40;18.70;;;;;;;;;;5052750;28;20106;-60
2022/01/01 04:19:25;;;;;;;29.55;20.13;;;;;;;;;;5052163;28;20045;-60
2022/01/01 04:21:53;;;;;;;27.98;19.85;;;;;;;;;;5052547;28;20049;-60
2022/01/01 04:24:19;;;;;;;26.30;19.15;;;;;;;;;;5053018;28;20110;-60
2022/01/01 04:26:45;;;;;;;25.70;19.05;;;;;;;;;;5051785;28;20086;-60
2022/01/01 04:29:12;;;;;;;25.10;19.45;;;;;;;;;;5052872;28;20190;-60
2022/01/01 04:31:38;;;;;;;24.25;19.13;;;;;;;;;;5052478;28;20520;-60
2022/01/01 04:34:04;;;;;;;23.95;18.73;;;;;;;;;;5051748;28;20091;-60
2022/01/01 04:36:30;;;;;;;25.73;18.45;;;;;;;;;;5052382;28;20091;-60
2022/01/01 04:38:58;;;;;;;26.63;19.10;;;;;;;;;;5052452;28;20051;-60
2022/01/01 04:41:24;;;;;;;26.38;18.55;;;;;;;;;;5051553;28;20049;-60
2022/01/01 04:43:50;;;;;;;25.77;19.25;;;;;;;;;;5052283;28;20045;-60
2022/01/01 04:46:16;;;;;;;26.40;18.83;;;;;;;;;;5052305;28;20045;-60
2022/01/01 04:48:43;;;;;;;24.90;19.02;;;;;;;;;;5051456;28;20049;-60
2022/01/01 04:51:10;;;;;;;28.00;19.30;;;;;;;;;;5051981;28;20048;-60
2022/01/01 04:53:36;;;;;;;24.73;18.60;;;;;;;;;;5051552;28;20388;-60
2022/01/01 04:56:06;;;;;;;26.65;19.88;;;;;;;;;;5052007;28;20068;-60
2022/01/01 04:58:33;;;;;;;24.83;18.48;;;;;;;;;;5052341;28;20049;-60
2022/01/01 05:00:59;;;;;;;27.27;17.98;;;;;;;;;;5050729;28;20041;-62
2022/01/01 05:03:25;;;;;;;23.30;18.35;;;;;;;;;;5051263;28;20045;-62
2022/01/01 05:05:52;;;;;;;21.35;18.02;;;;;;;;;;5051758;28;20080;-62
2022/01/01 05:08:18;;;;;;;23.63;17.73;;;;;;;;;;5051402;28;20114;-60
2022/01/01 05:10:44;;;;;;;24.05;17.98;;;;;;;;;;5051041;28;20048;-60
2022/01/01 05:13:13;;;;;;;22.23;17.48;;;;;;;;;;5051733;28;20433;-60
2022/01/01 05:15:39;;;;;;;23.45;18.10;;;;;;;;;;5051230;28;20056;-60
2022/01/01 05:18:06;;;;;;;27.75;18.25;;;;;;;;;;5051415;28;20049;-62
2022/01/01 05:20:32;;;;;;;21.63;17.33;;;;;;;;;;5051699;28;20733;-60
2022/01/01 05:22:58;;;;;;;23.48;18.23;;;;;;;;;;5050723;28;20094;-60
2022/01/01 05:25:24;;;;;;;24.63;17.50;;;;;;;;;;5051873;28;20045;-60
2022/01/01 05:27:51;;;;;;;24.35;17.75;;;;;;;;;;5051359;28;20072;-60
2022/01/01 05:30:18;;;;;;;21.45;17.15;;;;;;;;;;5050908;28;20473;-60
2022/01/01 05:32:44;;;;;;;23.40;17.65;;;;;;;;;;5050979;28;20447;-60
2022/01/01 05:35:11;;;;;;;19.83;16.95;;;;;;;;;;5051744;28;20041;-60
2022/01/01 05:37:37;;;;;;;22.48;17.25;;;;;;;;;;5050853;28;20045;-60
2022/01/01 05:40:03;;;;;;;21.50;17.75;;;;;;;;;;5051253;28;20045;-60
2022/01/01 05:42:30;;;;;;;22.80;17.17;;;;;;;;;;5051352;28;20045;-60
2022/01/01 05:44:56;;;;;;;22.20;16.85;;;;;;;;;;5050386;28;20045;-60
2022/01/01 05:47:23;;;;;;;23.92;17.73;;;;;;;;;;5051005;28;20385;-60
2022/01/01 05:49:49;;;;;;;20.73;16.75;;;;;;;;;;5050569;28;20418;-60
2022/01/01 05:52:16;;;;;;;22.45;16.85;;;;;;;;;;5051257;28;20049;-60
2022/01/01 05:54:42;;;;;;;19.02;16.20;;;;;;;;;;5051122;28;20053;-60
2022/01/01 05:57:08;;;;;;;20.55;16.25;;;;;;;;;;5050435;28;20483;-60
2022/01/01 05:59:35;;;;;;;20.30;16.15;;;;;;;;;;5051010;28;20049;-60
2022/01/01 06:02:01;;;;;;;20.02;15.27;;;;;;;;;;5051135;28;20083;-60
2022/01/01 06:04:29;;;;;;;18.55;15.27;;;;;;;;;;5050253;28;20057;-60
2022/01/01 06:06:56;;;;;;;18.83;14.68;;;;;;;;;;5051213;28;20045;-61
2022/01/01 06:09:22;;;;;;;20.27;15.73;;;;;;;;;;5051563;28;20534;-61
2022/01/01 06:11:48;;;;;;;20.05;15.07;;;;;;;;;;5050051;28;20103;-61
2022/01/01 06:14:16;;;;;;;18.27;14.77;;;;;;;;;;5050864;28;20118;-61
2022/01/01 06:16:42;;;;;;;18.70;14.77;;;;;;;;;;5050967;28;20049;-61
2022/01/01 06:19:08;;;;;;;18.85;15.05;;;;;;;;;;5050094;28;20053;-61
2022/01/01 06:21:36;;;;;;;19.08;14.50;;;;;;;;;;5053395;28;20082;-60
2022/01/01 06:24:02;;;;;;;17.70;14.68;;;;;;;;;;5054827;28;20921;-60
2022/01/01 06:26:28;;;;;;;22.75;15.52;;;;;;;;;;5054326;28;20053;-60
2022/01/01 06:28:54;;;;;;;17.00;13.98;;;;;;;;;;5054451;28;20053;-60
2022/01/01 06:31:20;;;;;;;17.10;14.30;;;;;;;;;;5055144;28;20118;-60
2022/01/01 06:33:47;;;;;;;17.73;13.73;;;;;;;;;;5053915;28;20041;-60
2022/01/01 06:36:13;;;;;;;16.42;13.27;;;;;;;;;;5054915;28;20045;-60
2022/01/01 06:38:42;;;;;;;16.35;12.75;;;;;;;;;;5055250;28;20053;-60
2022/01/01 06:41:08;;;;;;;17.80;13.57;;;;;;;;;;5054046;28;20049;-60
2022/01/01 06:43:34;;;;;;;18.02;13.65;;;;;;;;;;5054590;28;20110;-60
2022/01/01 06:46:00;;;;;;;17.00;13.40;;;;;;;;;;5053924;28;20045;-60
2022/01/01 06:48:26;;;;;;;15.52;13.18;;;;;;;;;;5054647;28;20068;-60
2022/01/01 06:50:54;;;;;;;15.55;13.27;;;;;;;;;;5054524;28;20049;-60
2022/01/01 06:53:20;;;;;;;16.92;13.07;;;;;;;;;;5053846;28;20076;-60
2022/01/01 06:55:48;;;;;;;13.60;12.18;;;;;;;;;;5054099;28;20045;-60
2022/01/01 06:58:14;;;;;;;14.68;12.35;;;;;;;;;;5054035;28;20056;-60
2022/01/01 07:00:40;;;;;;;14.57;12.50;;;;;;;;;;5053073;28;20045;-60
2022/01/01 07:03:07;;;;;;;18.40;12.80;;;;;;;;;;5054088;28;20049;-61
2022/01/01 07:05:33;;;;;;;16.42;12.20;;;;;;;;;;5053391;28;20053;-61
2022/01/01 07:08:00;;;;;;;13.23;11.73;;;;;;;;;;5052868;28;20045;-60
2022/01/01 07:10:26;;;;;;;14.90;12.32;;;;;;;;;;5053674;28;20053;-61
2022/01/01 07:12:54;;;;;;;14.95;11.43;;;;;;;;;;5053450;28;20103;-61
2022/01/01 07:15:20;;;;;;;14.63;12.60;;;;;;;;;;5052859;28;20483;-60
2022/01/01 07:17:46;;;;;;;12.95;11.55;;;;;;;;;;5053642;28;20040;-61
2022/01/01 07:20:12;;;;;;;15.80;11.88;;;;;;;;;;5053339;28;20099;-61
2022/01/01 07:22:39;;;;;;;13.90;11.13;;;;;;;;;;5053027;28;20111;-60
2022/01/01 07:25:06;;;;;;;14.43;11.65;;;;;;;;;;5053137;28;20045;-61
2022/01/01 07:27:32;;;;;;;13.32;10.75;;;;;;;;;;5053734;28;20106;-60
2022/01/01 07:29:59;;;;;;;13.73;11.55;;;;;;;;;;5052435;28;20075;-60
2022/01/01 07:32:26;;;;;;;15.55;11.80;;;;;;;;;;5052670;28;20044;-60
2022/01/01 07:34:52;;;;;;;13.00;10.90;;;;;;;;;;5053015;28;20053;-60
2022/01/01 07:37:18;;;;;;;13.13;10.45;;;;;;;;;;5052657;28;20052;-60
2022/01/01 07:39:44;;;;;;;12.65;10.43;;;;;;;;;;5052761;28;20041;-60
2022/01/01 07:42:12;;;;;;;13.40;10.30;;;;;;;;;;5053021;28;20118;-60
2022/01/01 07:44:38;;;;;;;13.32;10.88;;;;;;;;;;5053650;28;20077;-60
2022/01/01 07:47:06;;;;;;;11.23;10.02;;;;;;;;;;5052938;28;20049;-60
2022/01/01 07:49:33;;;;;;;12.57;10.15;;;;;;;;;;5052709;28;20075;-60
2022/01/01 07:51:59;;;;;;;13.48;9.82;;;;;;;;;;5053523;28;20049;-60
2022/01/01 07:54:25;;;;;;;14.30;10.10;;;;;;;;;;5053077;28;20045;-61
2022/01/01 07:56:51;;;;;;;12.10;9.90;;;;;;;;;;5051961;28;20098;-61
2022/01/01 07:59:17;;;;;;;12.35;9.90;;;;;;;;;;5052857;28;20041;-60
2022/01/01 08:01:44;;;;;;;13.65;9.45;;;;;;;;;;5052319;28;20048;-61
2022/01/01 08:04:11;;;;;;;11.40;9.65;;;;;;;;;;5052167;28;20065;-61
2022/01/01 08:06:37;;;;;;;11.68;9.05;;;;;;;;;;5052811;28;20053;-61
2022/01/01 08:09:04;;;;;;;11.40;9.63;;;;;;;;;;5052665;28;20444;-60
2022/01/01 08:11:30;;;;;;;11.23;9.30;;;;;;;;;;5051989;28;20492;-61
2022/01/01 08:13:57;;;;;;;10.90;9.13;;;;;;;;;;5052328;28;20099;-61
2022/01/01 08:16:23;;;;;;;11.27;8.57;;;;;;;;;;5052409;28;20044;-61
2022/01/01 08:18:49;;;;;;;11.15;8.63;;;;;;;;;;5051539;28;20041;-61
2022/01/01 08:21:16;;;;;;;14.50;9.15;;;;;;;;;;5052081;28;20048;-61
2022/01/01 08:23:47;;;;;;;10.38;8.85;;;;;;;;;;5052219;28;20049;-61
2022/01/01 08:26:14;;;;;;;11.80;8.85;;;;;;;;;;5051041;28;20099;-61
2022/01/01 08:28:41;;;;;;;12.27;8.80;;;;;;;;;;5052489;28;20561;-61
2022/01/01 08:31:07;;;;;;;10.70;8.93;;;;;;;;;;5052232;28;20136;-61
2022/01/01 08:33:33;;;;;;;12.68;8.98;;;;;;;;;;5051413;28;20488;-60
2022/01/01 08:36:03;;;;;;;11.20;8.50;;;;;;;;;;5052387;28;20469;-60
2022/01/01 08:38:30;;;;;;;9.13;7.43;;;;;;;;;;5051993;28;20068;-61
2022/01/01 08:40:57;;;;;;;9.45;7.95;;;;;;;;;;5052372;28;20053;-61
2022/01/01 08:43:25;;;;;;;10.90;8.35;;;;;;;;;;5052465;28;20445;-61
2022/01/01 08:45:51;;;;;;;9.48;8.13;;;;;;;;;;5050659;28;20053;-60
2022/01/01 08:48:17;;;;;;;11.18;8.45;;;;;;;;;;5052205;28;20094;-61
2022/01/01 08:50:43;;;;;;;11.88;7.65;;;;;;;;;;5052040;28;20111;-61
2022/01/01 08:53:09;;;;;;;11.13;7.30;;;;;;;;;;5051683;28;20380;-61
2022/01/01 08:55:37;;;;;;;9.98;7.72;;;;;;;;;;5052609;28;20061;-61
2022/01/01 08:58:04;;;;;;;9.10;7.55;;;;;;;;;;5052023;28;20107;-61
2022/01/01 09:00:30;;;;;;;8.73;7.15;;;;;;;;;;5051561;28;20041;-60
2022/01/01 09:02:56;;;;;;;9.50;7.30;;;;;;;;;;5051686;28;20103;-60
2022/01/01 09:05:25;;;;;;;9.73;7.55;;;;;;;;;;5052148;28;20458;-61
2022/01/01 09:07:51;;;;;;;7.45;6.13;;;;;;;;;;5051022;28;20049;-61
2022/01/01 09:10:19;;;;;;;9.35;6.95;;;;;;;;;;5052280;28;20070;-61
2022/01/01 09:12:46;;;;;;;9.48;6.63;;;;;;;;;;5051698;28;20059;-60
2022/01/01 09:15:13;;;;;;;8.00;6.68;;;;;;;;;;5051432;28;20171;-61
2022/01/01 09:17:39;;;;;;;10.35;7.35;;;;;;;;;;5051772;28;20045;-61
2022/01/01 09:20:06;;;;;;;8.73;6.63;;;;;;;;;;5051456;28;20083;-61
2022/01/01 09:22:32;;;;;;;9.70;6.85;;;;;;;;;;5051271;28;20057;-61
2022/01/01 09:24:58;;;;;;;7.57;6.75;;;;;;;;;;5051610;28;20041;-60
2022/01/01 09:27:25;;;;;;;8.52;6.68;;;;;;;;;;5051878;28;20045;-61
2022/01/01 09:29:52;;;;;;;9.13;6.35;;;;;;;;;;5050783;28;20057;-61
2022/01/01 09:32:20;;;;;;;9.43;6.95;;;;;;;;;;5051154;28;20045;-61
2022/01/01 09:34:46;;;;;;;8.30;6.53;;;;;;;;;;5049863;28;20092;-61
2022/01/01 09:37:12;;;;;;;9.55;6.13;;;;;;;;;;5051810;28;20049;-61
2022/01/01 09:39:39;;;;;;;7.80;6.18;;;;;;;;;;5051662;28;20049;-61
2022/01/01 09:42:05;;;;;;;7.95;6.28;;;;;;;;;;5050605;28;20158;-61
2022/01/01 09:44:35;;;;;;;9.20;6.60;;;;;;;;;;5051353;28;20048;-61
2022/01/01 09:47:03;;;;;;;7.95;5.75;;;;;;;;;;5051479;28;20079;-61
2022/01/01 09:49:29;;;;;;;9.50;6.78;;;;;;;;;;5050159;28;20099;-61
2022/01/01 09:51:56;;;;;;;8.75;6.85;;;;;;;;;;5051310;28;20076;-61
2022/01/01 09:54:22;;;;;;;10.85;7.28;;;;;;;;;;5051518;28;20099;-60
2022/01/01 09:56:48;;;;;;;8.70;7.40;;;;;;;;;;5049989;28;20106;-59
2022/01/01 09:59:14;;;;;;;9.18;7.15;;;;;;;;;;5049662;28;20041;-60
2022/01/01 10:01:41;;;;;;;10.15;6.88;;;;;;;;;;5051481;28;20048;-60
2022/01/01 10:04:14;;;;;;;9.55;6.95;;;;;;;;;;5050072;28;20488;-60
2022/01/01 10:06:41;;;;;;;8.05;7.18;;;;;;;;;;5051416;28;20048;-60
2022/01/01 10:09:09;;;;;;;7.22;6.45;;;;;;;;;;5050782;28;20049;-60
2022/01/01 10:11:36;;;;;;;9.57;6.60;;;;;;;;;;5050570;28;20057;-60
2022/01/01 10:14:05;;;;;;;10.32;7.10;;;;;;;;;;5050482;28;20509;-59
2022/01/01 10:16:31;;;;;;;9.68;6.55;;;;;;;;;;5051128;28;20492;-60
2022/01/01 10:18:57;;;;;;;7.35;6.13;;;;;;;;;;5050013;28;20102;-59
2022/01/01 10:21:27;;;;;;;8.45;6.00;;;;;;;;;;5051159;28;20045;-59
2022/01/01 10:23:55;;;;;;;9.75;6.80;;;;;;;;;;5050962;28;20171;-60
2022/01/01 10:29:11;;;;;;;7.95;6.35;;;;;;;;;;5050788;28;20052;-61
2022/01/01 10:31:38;;;;;;;9.77;6.20;;;;;;;;;;5050456;28;20126;-60
2022/01/01 10:34:10;;;;;;;9.43;6.45;;;;;;;;;;5050808;28;20114;-59
2022/01/01 10:36:38;;;;;;;8.07;6.43;;;;;;;;;;5050955;28;20041;-60
2022/01/01 10:39:10;;;;;;;9.65;6.68;;;;;;;;;;5049931;28;20354;-60
2022/01/01 10:41:44;;;;;;;7.10;5.68;;;;;;;;;;5050844;28;20096;-59
2022/01/01 10:44:11;;;;;;;8.35;6.60;;;;;;;;;;5050935;28;20045;-60
2022/01/01 10:46:38;;;;;;;8.40;6.32;;;;;;;;;;5050194;28;20136;-61
2022/01/01 10:49:29;;;;;;;7.90;5.53;;;;;;;;;;5050853;28;20045;-61
2022/01/01 10:52:00;;;;;;;9.20;5.95;;;;;;;;;;5050794;28;20067;-61
2022/01/01 10:54:26;;;;;;;8.98;6.03;;;;;;;;;;5050196;28;20443;-60
2022/01/01 10:56:55;;;;;;;7.15;5.75;;;;;;;;;;5050555;28;20187;-60
2022/01/01 10:59:29;;;;;;;10.05;6.20;;;;;;;;;;5050033;28;20044;-59
2022/01/01 11:01:56;;;;;;;10.02;6.10;;;;;;;;;;5050505;28;20060;-60
2022/01/01 11:04:23;;;;;;;7.93;6.05;;;;;;;;;;5049331;28;20111;-60
2022/01/01 11:06:50;;;;;;;7.60;6.05;;;;;;;;;;5048206;28;20114;-61
2022/01/01 11:09:18;;;;;;;10.10;6.70;;;;;;;;;;5053033;28;20049;-61
2022/01/01 11:11:45;;;;;;;7.82;5.88;;;;;;;;;;5053703;28;20087;-61
2022/01/01 11:14:11;;;;;;;12.38;6.75;;;;;;;;;;5053556;28;20048;-61
2022/01/01 11:16:38;;;;;;;10.45;6.28;;;;;;;;;;5054132;28;20041;-62
2022/01/01 11:19:04;;;;;;;7.15;5.82;;;;;;;;;;5054188;28;20084;-62
2022/01/01 11:21:31;;;;;;;8.10;6.15;;;;;;;;;;5053172;28;20056;-61
2022/01/01 11:23:58;;;;;;;9.73;6.32;;;;;;;;;;5053919;28;20103;-61
2022/01/01 11:26:27;;;;;;;8.55;6.50;;;;;;;;;;5054070;28;20087;-61
2022/01/01 11:28:53;;;;;;;8.43;6.22;;;;;;;;;;5053105;28;20102;-61
2022/01/01 11:31:20;;;;;;;9.63;6.47;;;;;;;;;;5053685;28;20041;-62
2022/01/01 11:33:52;;;;;;;10.52;6.53;;;;;;;;;;5053836;28;20059;-61
2022/01/01 11:36:19;;;;;;;9.10;6.03;;;;;;;;;;5053162;28;20091;-61
2022/01/01 11:38:45;;;;;;;10.05;6.43;;;;;;;;;;5053723;28;20111;-61
2022/01/01 11:41:12;;;;;;;8.88;5.85;;;;;;;;;;5053921;28;20091;-61
2022/01/01 11:43:41;;;;;;;8.90;6.53;;;;;;;;;;5052879;28;20115;-62
2022/01/01 11:46:11;;;;;;;8.50;6.70;;;;;;;;;;5053916;28;20044;-61
2022/01/01 11:48:48;;;;;;;7.63;6.13;;;;;;;;;;5053100;28;20052;-61
2022/01/01 11:51:31;;;;;;;8.98;6.55;;;;;;;;;;5053458;28;20049;-63
2022/01/01 11:54:18;;;;;;;8.15;6.32;;;;;;;;;;5053392;28;20073;-61
2022/01/01 11:56:56;;;;;;;7.32;6.47;;;;;;;;;;5045834;28;20068;-61
2022/01/01 11:59:25;;;;;;;9.25;6.32;;;;;;;;;;5053709;28;20045;-60
2022/01/01 12:01:52;;;;;;;7.78;6.25;;;;;;;;;;5052926;28;20091;-60
2022/01/01 12:04:25;;;;;;;8.80;6.28;;;;;;;;;;5052392;28;20049;-61
2022/01/01 12:06:54;;;;;;;7.68;6.38;;;;;;;;;;5053418;28;20041;-61
2022/01/01 12:09:21;;;;;;;9.98;6.53;;;;;;;;;;5053397;28;20363;-60
2022/01/01 12:11:50;;;;;;;10.05;6.60;;;;;;;;;;5052155;28;20045;-60
2022/01/01 12:14:20;;;;;;;7.20;6.10;;;;;;;;;;5050779;28;20037;-60
2022/01/01 12:16:52;;;;;;;8.75;6.65;;;;;;;;;;5052137;28;20063;-60
2022/01/01 12:19:21;;;;;;;9.27;6.75;;;;;;;;;;5052211;28;20476;-60
2022/01/01 12:21:48;;;;;;;8.30;5.90;;;;;;;;;;5052469;28;20072;-59
2022/01/01 12:24:17;;;;;;;11.93;6.57;;;;;;;;;;5052233;28;20041;-60
2022/01/01 12:26:50;;;;;;;6.35;5.68;;;;;;;;;;5052951;28;20049;-60
2022/01/01 12:29:21;;;;;;;10.55;6.53;;;;;;;;;;5052833;28;20099;-60
2022/01/01 12:31:56;;;;;;;7.60;6.28;;;;;;;;;;5052042;28;20045;-60
2022/01/01 12:34:22;;;;;;;8.73;6.80;;;;;;;;;;5052928;28;20102;-60
2022/01/01 12:36:50;;;;;;;8.52;6.60;;;;;;;;;;5052830;28;20045;-60
2022/01/01 12:39:16;;;;;;;8.30;6.45;;;;;;;;;;5051875;28;20045;-60
2022/01/01 12:41:44;;;;;;;8.38;6.47;;;;;;;;;;5052226;28;20099;-59
2022/01/01 12:44:16;;;;;;;8.38;6.25;;;;;;;;;;5052625;28;20114;-58
2022/01/01 12:46:45;;;;;;;10.07;6.38;;;;;;;;;;5051847;28;20045;-58
2022/01/01 12:49:12;;;;;;;7.05;6.35;;;;;;;;;;5052533;28;20049;-58
2022/01/01 12:51:39;;;;;;;8.68;6.55;;;;;;;;;;5052358;28;20118;-58
2022/01/01 12:54:06;;;;;;;8.23;6.65;;;;;;;;;;5051692;28;20045;-58
2022/01/01 12:56:33;;;;;;;9.65;6.88;;;;;;;;;;5052382;28;20049;-58
2022/01/01 12:59:00;;;;;;;10.07;6.22;;;;;;;;;;5051214;28;20452;-58
2022/01/01 13:01:27;;;;;;;7.65;6.85;;;;;;;;;;5052557;28;20056;-58
2022/01/01 13:03:54;;;;;;;8.23;6.18;;;;;;;;;;5051765;28;20106;-58
2022/01/01 13:06:23;;;;;;;8.93;6.68;;;;;;;;;;5051838;28;20049;-58
2022/01/01 13:08:49;;;;;;;9.02;7.15;;;;;;;;;;5051930;28;20045;-58
2022/01/01 13:11:17;;;;;;;8.20;6.43;;;;;;;;;;5052334;28;20099;-58
2022/01/01 13:13:44;;;;;;;7.93;6.43;;;;;;;;;;5050934;28;20068;-58
2022/01/01 13:16:10;;;;;;;8.88;5.90;;;;;;;;;;5052077;28;20044;-58
2022/01/01 13:18:36;;;;;;;6.53;5.90;;;;;;;;;;5052033;28;20091;-58
2022/01/01 13:21:02;;;;;;;7.35;6.63;;;;;;;;;;5051064;28;20052;-58
2022/01/01 13:23:30;;;;;;;6.82;6.10;;;;;;;;;;5051822;28;20102;-59
2022/01/01 13:25:57;;;;;;;8.52;6.50;;;;;;;;;;5050476;28;20088;-58
2022/01/01 13:28:23;;;;;;;7.35;6.07;;;;;;;;;;5051222;28;20057;-58
2022/01/01 13:30:50;;;;;;;7.53;6.05;;;;;;;;;;5050733;28;20158;-58
2022/01/01 13:33:16;;;;;;;8.02;5.82;;;;;;;;;;5051817;28;20127;-58
2022/01/01 13:35:47;;;;;;;7.47;6.50;;;;;;;;;;5051003;28;20111;-58
2022/01/01 13:38:14;;;;;;;7.97;6.15;;;;;;;;;;5051781;28;20056;-58
2022/01/01 13:40:43;;;;;;;8.10;6.10;;;;;;;;;;5051713;28;20041;-58
2022/01/01 13:43:10;;;;;;;9.30;6.20;;;;;;;;;;5050923;28;20161;-58
2022/01/01 13:45:36;;;;;;;9.95;6.32;;;;;;;;;;5051429;28;20492;-58
2022/01/01 13:48:06;;;;;;;6.97;6.05;;;;;;;;;;5050375;28;20731;-58
2022/01/01 13:50:38;;;;;;;8.43;5.80;;;;;;;;;;5051404;28;20045;-58
2022/01/01 13:53:06;;;;;;;7.43;6.15;;;;;;;;;;5051432;28;20053;-59
2022/01/01 13:55:33;;;;;;;7.93;6.05;;;;;;;;;;5050802;28;20415;-58
2022/01/01 13:58:02;;;;;;;6.72;6.00;;;;;;;;;;5051279;28;20447;-58
2022/01/01 14:00:29;;;;;;;8.93;6.32;;;;;;;;;;5051159;28;20068;-58
2022/01/01 14:02:55;;;;;;;8.07;7.05;;;;;;;;;;5050157;28;20048;-58
2022/01/01 14:05:22;;;;;;;7.82;6.22;;;;;;;;;;5051035;28;20057;-58
2022/01/01 14:07:49;;;;;;;7.40;6.22;;;;;;;;;;5051285;28;20045;-58
2022/01/01 14:10:16;;;;;;;8.65;6.80;;;;;;;;;;5050546;28;20136;-58
2022/01/01 14:12:44;;;;;;;8.38;6.38;;;;;;;;;;5051056;28;20045;-58
2022/01/01 14:15:12;;;;;;;7.30;6.60;;;;;;;;;;5051200;28;20052;-59
2022/01/01 14:17:54;;;;;;;7.97;6.68;;;;;;;;;;5050239;28;20092;-58
2022/01/01 14:20:21;;;;;;;7.60;6.20;;;;;;;;;;5051149;28;20486;-58
2022/01/01 14:22:47;;;;;;;7.93;6.60;;;;;;;;;;5050842;28;20099;-58
2022/01/01 14:25:14;;;;;;;8.55;6.70;;;;;;;;;;5050429;28;20045;-58
2022/01/01 14:27:40;;;;;;;7.53;6.57;;;;;;;;;;5051232;28;20454;-59
2022/01/01 14:30:07;;;;;;;8.73;6.57;;;;;;;;;;5049231;28;20084;-58
2022/01/01 14:32:35;;;;;;;7.85;6.90;;;;;;;;;;5050132;28;20480;-58
2022/01/01 14:35:02;;;;;;;7.60;6.85;;;;;;;;;;5050799;28;20053;-58